Time;durP1;ratioP1;P1;durP2;ratioP2;P2;SDS_P1;SDS_P2;PMS_P1;PMS_P2;Temp;Humidity;BMP_temperature;BMP_pressure;BME280_temperature;BME280_humidity;BME280_pressure;Samples;Min_cycle;Max_cycle;Signal;HPM_P1;HPM_P2
2022/05/26 00:00:50;;;;;;;5.90;2.40;;;14.50;99.90;;;;;;6324966;22;20020;-90
2022/05/26 00:03:16;;;;;;;7.25;2.42;;;14.50;99.90;;;;;;6325362;22;20125;-93
2022/05/26 00:05:42;;;;;;;8.07;2.28;;;14.50;99.90;;;;;;6326232;22;20452;-93
2022/05/26 00:08:08;;;;;;;6.37;2.60;;;14.50;99.90;;;;;;6328909;22;20016;-93
2022/05/26 00:10:35;;;;;;;5.72;2.75;;;14.50;99.90;;;;;;6331335;22;20020;-95
2022/05/26 00:13:01;;;;;;;5.97;2.63;;;14.50;99.90;;;;;;6329094;22;20035;-92
2022/05/26 00:15:27;;;;;;;6.25;2.53;;;14.40;99.90;;;;;;6325771;22;20081;-92
2022/05/26 00:17:52;;;;;;;5.87;2.47;;;14.40;99.90;;;;;;6328498;22;20090;-92
2022/05/26 00:20:18;;;;;;;8.07;2.70;;;14.50;99.90;;;;;;6328839;22;20016;-93
2022/05/26 00:22:44;;;;;;;7.05;2.60;;;14.40;99.90;;;;;;6329177;22;20472;-92
2022/05/26 00:25:09;;;;;;;11.50;2.90;;;14.40;99.90;;;;;;6327087;22;20023;-96
2022/05/26 00:27:35;;;;;;;6.60;2.50;;;14.40;99.90;;;;;;6323259;22;20116;-94
2022/05/26 00:30:01;;;;;;;6.70;2.87;;;14.40;99.90;;;;;;6326028;22;20023;-95
2022/05/26 00:32:26;;;;;;;5.13;2.47;;;14.30;99.90;;;;;;6328239;22;20303;-95
2022/05/26 00:34:52;;;;;;;8.60;2.40;;;14.30;99.90;;;;;;6327264;22;20021;-96
2022/05/26 00:37:18;;;;;;;8.13;2.43;;;14.30;99.90;;;;;;6328286;22;20016;-95
2022/05/26 00:39:43;;;;;;;6.13;2.23;;;14.30;99.90;;;;;;6327411;22;20068;-95
2022/05/26 00:42:10;;;;;;;7.20;2.53;;;14.30;99.90;;;;;;6328407;22;20247;-95
2022/05/26 00:44:36;;;;;;;6.22;2.35;;;14.30;99.90;;;;;;6328585;22;20259;-96
2022/05/26 00:47:11;;;;;;;7.30;2.25;;;14.30;99.90;;;;;;6331205;22;20459;-96
2022/05/26 00:49:59;;;;;;;7.05;2.88;;;14.20;99.90;;;;;;6331779;22;20016;-93
2022/05/26 00:52:42;;;;;;;11.85;2.50;;;14.30;99.90;;;;;;6352084;22;20399;-96
2022/05/26 02:17:31;;;;;;;7.43;1.80;;;14.20;99.90;;;;;;6241388;22;20020;-93
2022/05/26 02:20:10;;;;;;;5.95;1.42;;;14.20;99.90;;;;;;6190835;23;20028;-91
2022/05/26 02:22:42;;;;;;;4.97;1.25;;;14.20;99.90;;;;;;6190659;23;20020;-91
2022/05/26 02:25:18;;;;;;;4.25;2.10;;;14.10;99.90;;;;;;6190389;23;20012;-93
2022/05/26 02:27:46;;;;;;;6.17;1.63;;;14.20;99.90;;;;;;6190617;23;20016;-92
2022/05/26 02:30:36;;;;;;;4.78;1.30;;;14.10;99.90;;;;;;6190599;23;20044;-94
2022/05/26 03:26:27;;;;;;;4.35;1.15;;;13.90;99.90;;;;;;6247512;22;20024;-96
2022/05/26 03:29:03;;;;;;;6.88;2.00;;;13.80;99.90;;;;;;6191942;23;20020;-95
2022/05/26 03:31:30;;;;;;;2.30;0.95;;;13.90;99.90;;;;;;6191992;23;20044;-93
2022/05/26 03:42:11;;;;;;;2.78;0.90;;;13.80;99.90;;;;;;6220106;23;20020;-96
2022/05/26 03:44:37;;;;;;;3.83;1.17;;;13.80;99.90;;;;;;6195122;23;20024;-96
2022/05/26 03:47:04;;;;;;;3.03;0.90;;;13.80;99.90;;;;;;6195928;23;20031;-95
2022/05/26 03:49:30;;;;;;;4.38;0.98;;;13.80;99.90;;;;;;6193461;23;20055;-94
2022/05/26 03:51:57;;;;;;;5.03;0.90;;;13.70;99.90;;;;;;6192123;23;20012;-91
2022/05/26 03:54:24;;;;;;;3.03;1.00;;;13.70;99.90;;;;;;6191523;22;20020;-92
2022/05/26 03:56:49;;;;;;;4.45;1.10;;;13.70;99.90;;;;;;6206146;23;20012;-92
2022/05/26 03:59:15;;;;;;;4.60;1.17;;;13.70;99.90;;;;;;6198119;23;20438;-93
2022/05/26 04:01:41;;;;;;;5.03;1.27;;;13.70;99.90;;;;;;6192002;23;20020;-92
2022/05/26 04:04:07;;;;;;;3.25;1.27;;;13.70;99.90;;;;;;6192140;23;20020;-92
2022/05/26 04:06:33;;;;;;;5.30;0.90;;;13.70;99.90;;;;;;6191642;23;20020;-94
2022/05/26 04:08:59;;;;;;;5.47;1.20;;;13.70;99.90;;;;;;6191665;22;20008;-94
2022/05/26 04:11:25;;;;;;;5.65;1.35;;;13.70;99.90;;;;;;6192228;23;20096;-95
2022/05/26 04:13:54;;;;;;;4.72;0.80;;;13.70;99.90;;;;;;6191584;23;20012;-93
2022/05/26 04:16:21;;;;;;;3.80;1.20;;;13.70;99.90;;;;;;6191232;23;20095;-93
2022/05/26 04:18:47;;;;;;;4.10;0.63;;;13.70;99.90;;;;;;6192191;23;20042;-93
2022/05/26 04:21:14;;;;;;;2.25;0.50;;;13.70;99.90;;;;;;6192977;23;20012;-94
2022/05/26 04:23:40;;;;;;;4.85;0.60;;;13.70;99.90;;;;;;6193942;23;20029;-94
2022/05/26 04:26:07;;;;;;;4.32;1.02;;;13.70;99.90;;;;;;6199283;22;20097;-94
2022/05/26 04:28:33;;;;;;;4.20;0.82;;;13.70;99.90;;;;;;6199088;23;20016;-95
2022/05/26 04:31:02;;;;;;;2.40;0.60;;;13.70;99.90;;;;;;6199292;23;20107;-94
2022/05/26 04:34:00;;;;;;;3.85;0.75;;;13.70;99.90;;;;;;6201066;22;20019;-94
2022/05/26 05:31:37;;;;;;;2.60;0.40;;;14.40;99.90;;;;;;6248101;22;20020;-93
